aviador You're here:

KOAJ Decoded Metar

JACKSONVILLE in NC, USA
Report Time2017-09-23 17:56:00
UTC Time2017-09-23 18:24:28
Flight Rules vfr VFR
Wind040° at 09 kt
W.Decomp.*RWY 05: 9.0 kt HW 0.3 kt LCW
W.Rank040° ranks 14
Current wind is above 040° avg. (7.5)
Visibility9999 m
Phenomena:N/A
Clouds:N/A
Expected CloudBase > 4,400 ft AGL from Temp-Dew spread
CeilingNone
Temp29°C (ISA +14)
Dew Point18°C (51% RH)
Heat Index29.8°C
AAT28.5°C
QNH1017 hPa
Density Alt1,864 ft
Elevation95 ft
Report Wrong Elevation
Raw Report
KOAJ 231756Z AUTO 04009KT 10SM CLR 29/18 A3004 RMK AO2 SLP175
T02940178 10294 20189 58005=

Extra information for KOAJ:More info

Metar Taf Metar & Taf Last 4 Metars F.Rules Stats Wind Profile Meteogram Temp Stats Airport Information Weather charts Add Link Nearby VenuesMetar ALERT Operation Metar Decoded Social comments

AIRNAV info for KOAJ